createdAt,value
2022-12-17T00:00:51.042Z,-5.37
2022-12-17T00:01:51.660Z,-5.36
2022-12-17T00:02:52.015Z,-5.35
2022-12-17T00:03:52.880Z,-5.35
2022-12-17T00:04:52.743Z,-5.34
2022-12-17T00:05:53.532Z,-5.33
2022-12-17T00:06:54.578Z,-5.33
2022-12-17T00:07:54.983Z,-5.32
2022-12-17T00:08:55.856Z,-5.31
2022-12-17T00:09:56.734Z,-5.30
2022-12-17T00:10:56.727Z,-5.30
2022-12-17T00:11:05.353Z,-5.19
2022-12-17T00:12:05.443Z,-5.19
2022-12-17T00:13:05.652Z,-5.19
2022-12-17T00:14:06.104Z,-5.19
2022-12-17T00:15:07.033Z,-5.18
2022-12-17T00:16:07.923Z,-5.18
2022-12-17T00:17:08.861Z,-5.19
2022-12-17T00:18:09.808Z,-5.19
2022-12-17T00:19:09.943Z,-5.19
2022-12-17T00:20:09.954Z,-5.18
2022-12-17T00:21:11.691Z,-5.18
2022-12-17T00:22:11.003Z,-5.19
2022-12-17T00:23:12.597Z,-5.19
2022-12-17T00:24:13.201Z,-5.19
2022-12-17T00:25:13.152Z,-5.19
2022-12-17T00:26:13.768Z,-5.19
2022-12-17T00:27:14.254Z,-5.19
2022-12-17T00:28:15.319Z,-5.19
2022-12-17T00:29:15.082Z,-5.19
2022-12-17T00:30:15.784Z,-5.19
2022-12-17T00:31:17.819Z,-5.18
2022-12-17T00:32:17.700Z,-5.18
2022-12-17T00:33:18.840Z,-5.17
2022-12-17T00:34:18.530Z,-5.17
2022-12-17T00:34:27.151Z,-5.06
2022-12-17T00:35:28.828Z,-5.07
2022-12-17T00:36:29.766Z,-5.06
2022-12-17T00:37:30.501Z,-5.06
2022-12-17T00:38:31.043Z,-5.07
2022-12-17T00:39:30.924Z,-5.07
2022-12-17T00:40:32.583Z,-5.07
2022-12-17T00:41:32.187Z,-5.08
2022-12-17T00:42:33.722Z,-5.08
2022-12-17T00:43:34.156Z,-5.08
2022-12-17T00:44:34.288Z,-5.09
2022-12-17T00:45:35.949Z,-5.09
2022-12-17T00:46:36.000Z,-5.09
2022-12-17T00:47:36.742Z,-5.09
2022-12-17T00:48:37.767Z,-5.09
2022-12-17T00:49:37.824Z,-5.09
2022-12-17T00:50:38.150Z,-5.09
2022-12-17T00:51:39.840Z,-5.09
2022-12-17T00:52:40.231Z,-5.08
2022-12-17T00:53:40.057Z,-5.08
2022-12-17T00:54:41.801Z,-5.08
2022-12-17T00:54:50.429Z,-5.04
2022-12-17T00:55:52.177Z,-5.05
2022-12-17T00:56:52.780Z,-5.04
2022-12-17T00:57:52.413Z,-5.04
2022-12-17T00:58:52.994Z,-5.04
2022-12-17T00:59:53.477Z,-5.04
2022-12-17T01:00:55.223Z,-5.04
2022-12-17T01:01:55.032Z,-5.04
2022-12-17T01:02:55.626Z,-5.03
2022-12-17T01:03:56.331Z,-5.03
2022-12-17T01:04:57.317Z,-5.03
2022-12-17T01:05:57.987Z,-5.02
2022-12-17T01:06:59.009Z,-5.02
2022-12-17T01:07:59.584Z,-5.01
2022-12-17T01:08:58.603Z,-5.01
2022-12-17T01:09:58.650Z,-5.00
2022-12-17T01:10:59.414Z,-4.99
2022-12-17T01:11:59.659Z,-4.98
2022-12-17T01:13:00.811Z,-4.98
2022-12-17T01:14:00.672Z,-4.98
2022-12-17T01:15:01.608Z,-4.97
2022-12-17T01:16:03.359Z,-4.97
2022-12-17T01:17:03.146Z,-4.97
2022-12-17T01:17:11.773Z,-4.91
2022-12-17T01:18:12.840Z,-4.92
2022-12-17T01:19:13.358Z,-4.91
2022-12-17T01:20:13.165Z,-4.91
2022-12-17T01:21:14.016Z,-4.91
2022-12-17T01:22:14.781Z,-4.91
2022-12-17T01:23:16.555Z,-4.90
2022-12-17T01:24:16.269Z,-4.89
2022-12-17T01:25:16.759Z,-4.89
2022-12-17T01:26:17.266Z,-4.89
2022-12-17T01:27:17.759Z,-4.88
2022-12-17T01:28:18.544Z,-4.88
2022-12-17T01:29:18.845Z,-4.88
2022-12-17T01:30:20.775Z,-4.88
2022-12-17T01:31:20.596Z,-4.88
2022-12-17T01:32:20.623Z,-4.88
2022-12-17T01:33:21.524Z,-4.89
2022-12-17T01:34:23.406Z,-4.89
2022-12-17T01:35:24.197Z,-4.89
2022-12-17T01:36:23.908Z,-4.89
2022-12-17T01:37:24.682Z,-4.90
2022-12-17T01:38:26.635Z,-4.90
2022-12-17T01:39:27.296Z,-4.90
2022-12-17T01:40:28.192Z,-4.91
2022-12-17T01:41:27.746Z,-4.91
2022-12-17T01:41:36.372Z,-4.96
2022-12-17T01:42:37.550Z,-4.97
2022-12-17T01:43:38.260Z,-4.96
2022-12-17T01:44:37.522Z,-4.96
2022-12-17T01:45:39.470Z,-4.95
2022-12-17T01:46:38.632Z,-4.95
2022-12-17T01:47:40.020Z,-4.94
2022-12-17T01:48:39.806Z,-4.93
2022-12-17T01:49:41.699Z,-4.93
2022-12-17T01:50:42.180Z,-4.92
2022-12-17T01:51:41.910Z,-4.91
2022-12-17T01:52:42.498Z,-4.90
2022-12-17T01:53:43.169Z,-4.89
2022-12-17T01:54:43.402Z,-4.89
2022-12-17T01:55:44.162Z,-4.88
2022-12-17T01:56:46.038Z,-4.87
2022-12-17T01:57:45.962Z,-4.86
2022-12-17T01:58:46.736Z,-4.85
2022-12-17T01:59:48.611Z,-4.85
2022-12-17T02:00:48.041Z,-4.84
2022-12-17T02:01:48.639Z,-4.82
2022-12-17T02:02:48.587Z,-4.82
2022-12-17T02:03:48.685Z,-4.81
2022-12-17T02:03:57.323Z,-4.70
2022-12-17T02:04:57.370Z,-4.70
2022-12-17T02:05:59.345Z,-4.70
2022-12-17T02:06:58.749Z,-4.70
2022-12-17T02:08:00.283Z,-4.70
2022-12-17T02:09:00.918Z,-4.70
2022-12-17T02:10:00.180Z,-4.70
2022-12-17T02:11:01.286Z,-4.70
2022-12-17T02:12:02.013Z,-4.70
2022-12-17T02:13:01.552Z,-4.69
2022-12-17T02:14:03.484Z,-4.69
2022-12-17T02:15:02.923Z,-4.69
2022-12-17T02:16:04.598Z,-4.69
2022-12-17T02:17:03.913Z,-4.68
2022-12-17T02:18:04.339Z,-4.68
2022-12-17T02:19:06.097Z,-4.68
2022-12-17T02:20:06.567Z,-4.68
2022-12-17T02:21:07.308Z,-4.67
2022-12-17T02:22:06.791Z,-4.67
2022-12-17T02:23:07.686Z,-4.66
2022-12-17T02:24:09.500Z,-4.66
2022-12-17T02:25:10.316Z,-4.66
2022-12-17T02:25:18.898Z,-4.61
2022-12-17T02:26:20.497Z,-4.61
2022-12-17T02:27:19.990Z,-4.61
2022-12-17T02:28:20.705Z,-4.60
2022-12-17T02:29:20.768Z,-4.60
2022-12-17T02:30:21.529Z,-4.60
2022-12-17T02:31:23.296Z,-4.59
2022-12-17T02:32:22.970Z,-4.59
2022-12-17T02:33:24.651Z,-4.58
2022-12-17T02:34:24.798Z,-4.58
2022-12-17T02:35:25.504Z,-4.58
2022-12-17T02:36:25.467Z,-4.58
2022-12-17T02:37:26.226Z,-4.58
2022-12-17T02:38:27.708Z,-4.58
2022-12-17T02:39:27.309Z,-4.58
2022-12-17T02:40:28.080Z,-4.58
2022-12-17T02:41:28.381Z,-4.58
2022-12-17T02:42:29.294Z,-4.58
2022-12-17T02:43:31.050Z,-4.58
2022-12-17T02:44:30.390Z,-4.58
2022-12-17T02:45:32.238Z,-4.58
2022-12-17T02:46:31.984Z,-4.58
2022-12-17T02:47:33.902Z,-4.58
2022-12-17T02:47:43.087Z,-4.60
2022-12-17T02:48:44.790Z,-4.60
2022-12-17T02:49:45.214Z,-4.60
2022-12-17T02:50:46.127Z,-4.60
2022-12-17T02:51:46.708Z,-4.61
2022-12-17T02:52:46.592Z,-4.62
2022-12-17T02:53:47.581Z,-4.62
2022-12-17T02:54:48.830Z,-4.63
2022-12-17T02:55:49.284Z,-4.65
2022-12-17T02:56:50.009Z,-4.66
2022-12-17T02:57:53.750Z,-4.68
2022-12-17T02:58:49.938Z,-4.69
2022-12-17T02:59:51.062Z,-4.71
2022-12-17T03:00:51.864Z,-4.72
2022-12-17T03:01:51.598Z,-4.73
2022-12-17T03:02:52.157Z,-4.74
2022-12-17T03:03:52.053Z,-4.76
2022-12-17T03:04:53.109Z,-4.77
2022-12-17T03:05:53.837Z,-4.78
2022-12-17T03:06:53.810Z,-4.79
2022-12-17T03:07:54.549Z,-4.79
2022-12-17T03:08:03.697Z,-4.89
2022-12-17T03:09:04.684Z,-4.89
2022-12-17T03:10:05.842Z,-4.89
2022-12-17T03:11:05.733Z,-4.89
2022-12-17T03:12:07.298Z,-4.89
2022-12-17T03:13:07.434Z,-4.89
2022-12-17T03:14:08.254Z,-4.89
2022-12-17T03:15:08.124Z,-4.89
2022-12-17T03:16:09.159Z,-4.89
2022-12-17T03:17:08.302Z,-4.90
2022-12-17T03:18:08.652Z,-4.90
2022-12-17T03:19:09.529Z,-4.90
2022-12-17T03:20:09.557Z,-4.90
2022-12-17T03:21:10.194Z,-4.90
2022-12-17T03:22:10.862Z,-4.90
2022-12-17T03:23:11.426Z,-4.90
2022-12-17T03:24:13.166Z,-4.90
2022-12-17T03:25:12.477Z,-4.90
2022-12-17T03:26:13.608Z,-4.90
2022-12-17T03:27:13.144Z,-4.91
2022-12-17T03:28:14.781Z,-4.91
2022-12-17T03:29:15.221Z,-4.91
2022-12-17T03:29:23.933Z,-4.94
2022-12-17T03:30:24.311Z,-4.94
2022-12-17T03:31:24.465Z,-4.94
2022-12-17T03:32:24.937Z,-4.94
2022-12-17T03:33:25.449Z,-4.94
2022-12-17T03:34:26.343Z,-4.94
2022-12-17T03:35:27.118Z,-4.94
2022-12-17T03:36:27.999Z,-4.94
2022-12-17T03:37:29.042Z,-4.94
2022-12-17T03:38:28.011Z,-4.94
2022-12-17T03:39:29.787Z,-4.94
2022-12-17T03:40:28.953Z,-4.94
2022-12-17T03:41:30.028Z,-4.94
2022-12-17T03:42:30.668Z,-4.94
2022-12-17T03:43:30.751Z,-4.94
2022-12-17T03:44:31.053Z,-4.94
2022-12-17T03:45:30.989Z,-4.93
2022-12-17T03:46:31.573Z,-4.93
2022-12-17T03:47:32.152Z,-4.93
2022-12-17T03:48:32.829Z,-4.93
2022-12-17T03:49:33.524Z,-4.92
2022-12-17T03:50:34.596Z,-4.92
2022-12-17T03:51:34.957Z,-4.92
2022-12-17T03:52:34.905Z,-4.91
2022-12-17T03:52:44.037Z,-4.85
2022-12-17T03:53:45.010Z,-4.86
2022-12-17T03:54:46.043Z,-4.86
2022-12-17T03:55:46.369Z,-4.86
2022-12-17T03:56:46.086Z,-4.86
2022-12-17T03:58:47.475Z,-4.91
2022-12-17T03:59:48.373Z,-4.91
2022-12-17T04:00:50.183Z,-4.91
2022-12-17T04:01:51.267Z,-4.91
2022-12-17T04:02:50.645Z,-4.91
2022-12-17T04:03:50.851Z,-4.91
2022-12-17T04:04:51.317Z,-4.91
2022-12-17T04:05:51.863Z,-4.92
2022-12-17T04:06:53.854Z,-4.92
2022-12-17T04:07:53.568Z,-4.92
2022-12-17T04:08:54.124Z,-4.92
2022-12-17T04:09:54.291Z,-4.91
2022-12-17T04:10:54.871Z,-4.91
2022-12-17T04:11:55.585Z,-4.91
2022-12-17T04:12:55.794Z,-4.91
2022-12-17T04:13:57.444Z,-4.91
2022-12-17T04:14:57.120Z,-4.91
2022-12-17T04:15:58.051Z,-4.90
2022-12-17T04:16:58.655Z,-4.90
2022-12-17T04:17:58.821Z,-4.90
2022-12-17T04:18:59.726Z,-4.90
2022-12-17T04:20:01.294Z,-4.90
2022-12-17T04:21:01.200Z,-4.90
2022-12-17T04:22:02.039Z,-4.89
2022-12-17T04:23:02.885Z,-4.89
2022-12-17T04:24:03.697Z,-4.89
2022-12-17T04:24:12.326Z,-4.86
2022-12-17T04:25:14.088Z,-4.86
2022-12-17T04:26:15.071Z,-4.86
2022-12-17T04:27:14.821Z,-4.86
2022-12-17T04:28:15.553Z,-4.87
2022-12-17T04:29:17.378Z,-4.87
2022-12-17T04:30:16.462Z,-4.87
2022-12-17T04:31:16.822Z,-4.87
2022-12-17T04:32:17.516Z,-4.86
2022-12-17T04:33:18.547Z,-4.86
2022-12-17T04:34:25.950Z,-4.86
2022-12-17T04:35:18.987Z,-4.86
2022-12-17T04:36:20.450Z,-4.85
2022-12-17T04:37:20.195Z,-4.85
2022-12-17T04:38:20.920Z,-4.85
2022-12-17T04:39:21.609Z,-4.85
2022-12-17T04:40:23.346Z,-4.85
2022-12-17T04:41:23.171Z,-4.85
2022-12-17T04:42:23.407Z,-4.85
2022-12-17T04:43:23.960Z,-4.85
2022-12-17T04:44:24.584Z,-4.84
2022-12-17T04:45:24.896Z,-4.84
2022-12-17T04:46:26.731Z,-4.83
2022-12-17T04:47:26.052Z,-4.83
2022-12-17T04:48:27.844Z,-4.82
2022-12-17T04:49:27.263Z,-4.82
2022-12-17T04:49:35.947Z,-4.77
2022-12-17T04:50:36.723Z,-4.78
2022-12-17T04:51:37.185Z,-4.77
2022-12-17T04:52:37.455Z,-4.77
2022-12-17T04:53:38.453Z,-4.77
2022-12-17T04:54:38.258Z,-4.77
2022-12-17T04:55:38.757Z,-4.77
2022-12-17T04:56:39.153Z,-4.76
2022-12-17T04:57:40.060Z,-4.76
2022-12-17T04:58:41.580Z,-4.76
2022-12-17T04:59:41.101Z,-4.76
2022-12-17T05:00:42.227Z,-4.76
2022-12-17T05:01:42.336Z,-4.75
2022-12-17T05:02:42.950Z,-4.75
2022-12-17T05:03:42.828Z,-4.74
2022-12-17T05:04:43.449Z,-4.74
2022-12-17T05:05:44.126Z,-4.74
2022-12-17T05:06:45.028Z,-4.73
2022-12-17T05:07:45.829Z,-4.73
2022-12-17T05:08:46.230Z,-4.73
2022-12-17T05:09:46.648Z,-4.73
2022-12-17T05:10:48.064Z,-4.72
2022-12-17T05:11:47.493Z,-4.72
2022-12-17T05:12:47.997Z,-4.71
2022-12-17T05:13:49.539Z,-4.71
2022-12-17T05:14:49.208Z,-4.70
2022-12-17T05:14:57.992Z,-4.58
2022-12-17T05:15:58.592Z,-4.58
2022-12-17T05:16:59.263Z,-4.58
2022-12-17T05:18:00.013Z,-4.58
2022-12-17T05:19:00.172Z,-4.58
2022-12-17T05:20:01.767Z,-4.58
2022-12-17T05:21:01.656Z,-4.58
2022-12-17T05:22:02.310Z,-4.58
2022-12-17T05:23:03.581Z,-4.59
2022-12-17T05:24:03.703Z,-4.59
2022-12-17T05:25:03.109Z,-4.60
2022-12-17T05:26:03.441Z,-4.61
2022-12-17T05:27:04.602Z,-4.62
2022-12-17T05:28:05.151Z,-4.62
2022-12-17T05:29:05.191Z,-4.63
2022-12-17T05:30:07.007Z,-4.64
2022-12-17T05:31:06.659Z,-4.65
2022-12-17T05:32:06.822Z,-4.66
2022-12-17T05:33:08.345Z,-4.68
2022-12-17T05:34:08.155Z,-4.70
2022-12-17T05:35:08.965Z,-4.72
2022-12-17T05:36:09.724Z,-4.75
2022-12-17T05:37:10.049Z,-4.77
2022-12-17T05:37:18.734Z,-5.10
2022-12-17T05:38:18.791Z,-5.11
2022-12-17T05:39:19.732Z,-5.11
2022-12-17T05:40:19.931Z,-5.12
2022-12-17T05:41:20.019Z,-5.13
2022-12-17T05:42:20.906Z,-5.15
2022-12-17T05:43:22.765Z,-5.17
2022-12-17T05:44:23.327Z,-5.19
2022-12-17T05:45:23.232Z,-5.20
2022-12-17T05:46:23.978Z,-5.22
2022-12-17T05:47:24.418Z,-5.24
2022-12-17T05:48:24.947Z,-5.25
2022-12-17T05:49:26.391Z,-5.27
2022-12-17T05:50:26.957Z,-5.28
2022-12-17T05:51:27.385Z,-5.30
2022-12-17T05:52:28.102Z,-5.32
2022-12-17T05:53:27.355Z,-5.33
2022-12-17T05:54:28.753Z,-5.35
2022-12-17T05:55:27.870Z,-5.36
2022-12-17T05:56:28.382Z,-5.37
2022-12-17T05:57:32.363Z,-5.38
2022-12-17T05:58:29.722Z,-5.39
2022-12-17T05:59:30.211Z,-5.40
2022-12-17T06:00:32.006Z,-5.41
2022-12-17T06:01:32.818Z,-5.41
2022-12-17T06:01:45.452Z,-5.50
2022-12-17T06:02:46.205Z,-5.50
2022-12-17T06:03:46.726Z,-5.49
2022-12-17T06:04:47.482Z,-5.49
2022-12-17T06:05:48.042Z,-5.49
2022-12-17T06:06:48.262Z,-5.48
2022-12-17T06:07:48.937Z,-5.48
2022-12-17T06:08:49.602Z,-5.48
2022-12-17T06:09:50.558Z,-5.48
2022-12-17T06:10:51.161Z,-5.49
2022-12-17T06:11:51.847Z,-5.49
2022-12-17T06:12:52.316Z,-5.50
2022-12-17T06:13:53.962Z,-5.51
2022-12-17T06:14:54.378Z,-5.52
2022-12-17T06:15:55.312Z,-5.53
2022-12-17T06:16:54.970Z,-5.54
2022-12-17T06:17:55.037Z,-5.55
2022-12-17T06:18:55.875Z,-5.56
2022-12-17T06:19:55.954Z,-5.58
2022-12-17T06:20:56.852Z,-5.59
2022-12-17T06:21:57.719Z,-5.60
2022-12-17T06:22:58.345Z,-5.60
2022-12-17T06:23:58.445Z,-5.61
2022-12-17T06:24:58.957Z,-5.62
2022-12-17T06:25:59.018Z,-5.62
2022-12-17T06:27:00.021Z,-5.63
2022-12-17T06:28:00.538Z,-5.63
2022-12-17T06:29:01.157Z,-5.63
2022-12-17T06:29:09.753Z,-5.62
2022-12-17T06:30:14.269Z,-5.62
2022-12-17T06:31:11.280Z,-5.62
2022-12-17T06:32:11.770Z,-5.61
2022-12-17T06:33:12.652Z,-5.61
2022-12-17T06:34:14.629Z,-5.61
2022-12-17T06:35:14.827Z,-5.61
2022-12-17T06:36:21.610Z,-5.60
2022-12-17T06:37:15.622Z,-5.60
2022-12-17T06:38:16.281Z,-5.59
2022-12-17T06:39:16.273Z,-5.59
2022-12-17T06:40:17.706Z,-5.58
2022-12-17T06:41:17.427Z,-5.57
2022-12-17T06:42:18.202Z,-5.56
2022-12-17T06:43:27.257Z,-5.55
2022-12-17T06:44:19.455Z,-5.54
2022-12-17T06:45:20.376Z,-5.53
2022-12-17T06:46:21.304Z,-5.52
2022-12-17T06:47:21.877Z,-5.51
2022-12-17T06:48:22.603Z,-5.50
2022-12-17T06:49:23.520Z,-5.50
2022-12-17T06:50:24.300Z,-5.50
2022-12-17T06:51:25.941Z,-5.50
2022-12-17T06:52:25.739Z,-5.50
2022-12-17T06:52:34.485Z,-5.53
2022-12-17T06:53:35.391Z,-5.53
2022-12-17T06:54:35.641Z,-5.53
2022-12-17T06:55:36.249Z,-5.53
2022-12-17T06:56:36.593Z,-5.54
2022-12-17T06:57:40.783Z,-5.54
2022-12-17T06:58:37.915Z,-5.55
2022-12-17T06:59:38.828Z,-5.55
2022-12-17T07:00:39.480Z,-5.55
2022-12-17T07:01:39.980Z,-5.56
2022-12-17T07:02:40.566Z,-5.57
2022-12-17T07:03:41.082Z,-5.58
2022-12-17T07:04:42.400Z,-5.58
2022-12-17T07:05:42.239Z,-5.58
2022-12-17T07:06:44.072Z,-5.59
2022-12-17T07:07:43.710Z,-5.59
2022-12-17T07:08:45.580Z,-5.60
2022-12-17T07:09:45.689Z,-5.61
2022-12-17T07:10:45.355Z,-5.62
2022-12-17T07:13:03.211Z,-5.72
2022-12-17T07:14:03.114Z,-5.73
2022-12-17T07:15:03.778Z,-5.73
2022-12-17T07:16:04.857Z,-5.73
2022-12-17T07:17:05.108Z,-5.73
2022-12-17T07:18:05.362Z,-5.73
2022-12-17T07:19:05.772Z,-5.73
2022-12-17T07:20:07.162Z,-5.73
2022-12-17T07:21:06.396Z,-5.73
2022-12-17T07:22:07.156Z,-5.73
2022-12-17T07:23:08.171Z,-5.72
2022-12-17T07:24:08.722Z,-5.72
2022-12-17T07:25:09.322Z,-5.73
2022-12-17T07:26:10.801Z,-5.73
2022-12-17T07:27:10.235Z,-5.73
2022-12-17T07:28:10.765Z,-5.72
2022-12-17T07:29:11.346Z,-5.72
2022-12-17T07:30:12.070Z,-5.72
2022-12-17T07:31:13.626Z,-5.72
2022-12-17T07:32:13.108Z,-5.73
2022-12-17T07:33:14.566Z,-5.73
2022-12-17T07:34:14.043Z,-5.74
2022-12-17T07:35:14.695Z,-5.75
2022-12-17T07:36:15.560Z,-5.76
2022-12-17T07:37:20.298Z,-5.77
2022-12-17T07:38:16.709Z,-5.77
2022-12-17T07:39:17.410Z,-5.78
2022-12-17T07:40:17.762Z,-5.79
2022-12-17T07:40:26.411Z,-5.87
2022-12-17T07:41:26.502Z,-5.87
2022-12-17T07:42:27.323Z,-5.87
2022-12-17T07:43:28.283Z,-5.87
2022-12-17T07:44:29.156Z,-5.86
2022-12-17T07:45:29.267Z,-5.85
2022-12-17T07:46:29.715Z,-5.85
2022-12-17T07:47:30.218Z,-5.84
2022-12-17T07:48:30.666Z,-5.83
2022-12-17T07:49:31.536Z,-5.82
2022-12-17T07:50:32.432Z,-5.81
2022-12-17T07:51:34.193Z,-5.79
2022-12-17T07:52:34.608Z,-5.77
2022-12-17T07:53:35.558Z,-5.76
2022-12-17T07:54:35.991Z,-5.74
2022-12-17T07:55:35.454Z,-5.72
2022-12-17T07:56:36.472Z,-5.71
2022-12-17T07:57:42.180Z,-5.69
2022-12-17T07:58:37.595Z,-5.66
2022-12-17T07:59:37.959Z,-5.64
2022-12-17T08:00:38.524Z,-5.62
2022-12-17T08:01:40.079Z,-5.59
2022-12-17T08:02:39.634Z,-5.57
2022-12-17T08:03:40.735Z,-5.55
2022-12-17T08:04:40.634Z,-5.52
2022-12-17T08:05:42.309Z,-5.50
2022-12-17T08:05:51.008Z,-5.18
2022-12-17T08:06:55.113Z,-5.18
2022-12-17T08:07:52.092Z,-5.18
2022-12-17T08:08:53.841Z,-5.19
2022-12-17T08:09:52.915Z,-5.19
2022-12-17T08:10:53.229Z,-5.19
2022-12-17T08:11:53.389Z,-5.19
2022-12-17T08:12:54.339Z,-5.19
2022-12-17T08:13:55.657Z,-5.21
2022-12-17T08:14:55.007Z,-5.22
2022-12-17T08:15:55.412Z,-5.24
2022-12-17T08:16:56.436Z,-5.25
2022-12-17T08:17:56.864Z,-5.27
2022-12-17T08:18:56.913Z,-5.27
2022-12-17T08:19:58.381Z,-5.28
2022-12-17T08:20:59.210Z,-5.29
2022-12-17T08:21:58.363Z,-5.29
2022-12-17T08:22:59.133Z,-5.29
2022-12-17T08:23:59.758Z,-5.29
2022-12-17T08:25:00.146Z,-5.29
2022-12-17T08:26:00.906Z,-5.28
2022-12-17T08:27:01.527Z,-5.27
2022-12-17T08:28:04.552Z,-5.27
2022-12-17T08:29:02.443Z,-5.25
2022-12-17T08:30:03.159Z,-5.24
2022-12-17T08:31:05.068Z,-5.22
2022-12-17T08:31:13.744Z,-4.91
2022-12-17T08:32:14.349Z,-4.91
2022-12-17T08:33:15.021Z,-4.91
2022-12-17T08:34:15.487Z,-4.91
2022-12-17T08:35:16.024Z,-4.91
2022-12-17T08:36:16.878Z,-4.91
2022-12-17T08:37:17.472Z,-4.91
2022-12-17T08:38:17.847Z,-4.91
2022-12-17T08:39:18.757Z,-4.91
2022-12-17T08:40:19.500Z,-4.92
2022-12-17T08:41:19.611Z,-4.91
2022-12-17T08:42:19.647Z,-4.91
2022-12-17T08:43:20.523Z,-4.91
2022-12-17T08:44:22.396Z,-4.92
2022-12-17T08:45:22.921Z,-4.91
2022-12-17T08:46:23.975Z,-4.91
2022-12-17T08:47:23.036Z,-4.92
2022-12-17T08:48:23.701Z,-4.91
2022-12-17T08:49:25.543Z,-4.91
2022-12-17T08:50:24.561Z,-4.90
2022-12-17T08:51:25.635Z,-4.90
2022-12-17T08:52:25.621Z,-4.89
2022-12-17T08:53:29.515Z,-4.88
2022-12-17T08:54:26.793Z,-4.87
2022-12-17T08:55:27.548Z,-4.86
2022-12-17T08:55:36.220Z,-4.63
2022-12-17T08:56:36.873Z,-4.63
2022-12-17T08:57:37.118Z,-4.63
2022-12-17T08:58:37.411Z,-4.63
2022-12-17T08:59:37.367Z,-4.64
2022-12-17T09:00:37.870Z,-4.64
2022-12-17T09:01:38.658Z,-4.63
2022-12-17T09:02:38.848Z,-4.62
2022-12-17T09:03:40.214Z,-4.61
2022-12-17T09:04:40.258Z,-4.60
2022-12-17T09:05:41.102Z,-4.59
2022-12-17T09:06:41.829Z,-4.57
2022-12-17T09:07:42.858Z,-4.56
2022-12-17T09:08:42.398Z,-4.54
2022-12-17T09:09:42.667Z,-4.53
2022-12-17T09:10:43.148Z,-4.50
2022-12-17T09:11:44.119Z,-4.49
2022-12-17T09:12:44.596Z,-4.47
2022-12-17T09:13:45.147Z,-4.44
2022-12-17T09:14:45.837Z,-4.41
2022-12-17T09:15:47.807Z,-4.39
2022-12-17T09:16:47.622Z,-4.37
2022-12-17T09:17:48.469Z,-4.35
2022-12-17T09:18:49.035Z,-4.32
2022-12-17T09:19:49.155Z,-4.30
2022-12-17T09:20:49.764Z,-4.28
2022-12-17T09:21:50.509Z,-4.26
2022-12-17T09:22:50.612Z,-4.24
2022-12-17T09:22:59.262Z,-3.83
2022-12-17T09:24:00.218Z,-3.84
2022-12-17T09:25:00.913Z,-3.83
2022-12-17T09:26:01.048Z,-3.83
2022-12-17T09:27:01.090Z,-3.83
2022-12-17T09:28:01.448Z,-3.83
2022-12-17T09:29:02.141Z,-3.83
2022-12-17T09:30:03.161Z,-3.82
2022-12-17T09:31:03.948Z,-3.82
2022-12-17T09:32:04.626Z,-3.82
2022-12-17T09:33:04.651Z,-3.82
2022-12-17T09:34:05.058Z,-3.82
2022-12-17T09:35:07.089Z,-3.82
2022-12-17T09:36:07.127Z,-3.82
2022-12-17T09:37:07.350Z,-3.81
2022-12-17T09:38:06.421Z,-3.80
2022-12-17T09:39:08.029Z,-3.79
2022-12-17T09:40:07.080Z,-3.78
2022-12-17T09:41:08.967Z,-3.77
2022-12-17T09:42:08.387Z,-3.75
2022-12-17T09:43:10.254Z,-3.74
2022-12-17T09:44:09.953Z,-3.72
2022-12-17T09:45:10.867Z,-3.71
2022-12-17T09:46:12.547Z,-3.70
2022-12-17T09:46:21.307Z,-3.41
2022-12-17T09:47:21.207Z,-3.41
2022-12-17T09:48:22.030Z,-3.41
2022-12-17T09:49:23.910Z,-3.40
2022-12-17T09:50:22.988Z,-3.39
2022-12-17T09:51:24.130Z,-3.39
2022-12-17T09:52:23.418Z,-3.39
2022-12-17T09:53:23.870Z,-3.40
2022-12-17T09:54:24.577Z,-3.40
2022-12-17T09:55:24.937Z,-3.39
2022-12-17T09:56:26.673Z,-3.39
2022-12-17T09:57:26.818Z,-3.38
2022-12-17T09:58:27.643Z,-3.38
2022-12-17T09:59:26.476Z,-3.38
2022-12-17T10:00:27.635Z,-3.39
2022-12-17T10:01:27.530Z,-3.39
2022-12-17T10:02:28.166Z,-3.38
2022-12-17T10:03:28.357Z,-3.39
2022-12-17T10:04:28.969Z,-3.39
2022-12-17T10:05:29.853Z,-3.39
2022-12-17T10:06:30.507Z,-3.38
2022-12-17T10:07:32.074Z,-3.37
2022-12-17T10:08:31.714Z,-3.37
2022-12-17T10:09:32.443Z,-3.36
2022-12-17T10:10:33.267Z,-3.37
2022-12-17T10:10:43.947Z,-3.39
2022-12-17T10:11:44.618Z,-3.39
2022-12-17T10:12:45.503Z,-3.38
2022-12-17T10:13:46.231Z,-3.38
2022-12-17T10:14:46.561Z,-3.37
2022-12-17T10:15:47.375Z,-3.37
2022-12-17T10:16:48.231Z,-3.36
2022-12-17T10:17:48.975Z,-3.37
2022-12-17T10:18:49.709Z,-3.37
2022-12-17T10:19:50.534Z,-3.39
2022-12-17T10:20:51.237Z,-3.41
2022-12-17T10:21:51.488Z,-3.42
2022-12-17T10:22:52.374Z,-3.43
2022-12-17T10:23:52.590Z,-3.43
2022-12-17T10:24:53.113Z,-3.43
2022-12-17T10:25:53.650Z,-3.43
2022-12-17T10:26:54.540Z,-3.42
2022-12-17T10:27:55.522Z,-3.41
2022-12-17T10:28:56.356Z,-3.40
2022-12-17T10:29:56.905Z,-3.38
2022-12-17T10:30:57.955Z,-3.37
2022-12-17T10:31:58.751Z,-3.36
2022-12-17T10:32:59.780Z,-3.34
2022-12-17T10:34:00.604Z,-3.33
2022-12-17T10:35:05.223Z,-3.32
2022-12-17T10:36:01.637Z,-3.31
2022-12-17T10:37:02.558Z,-3.30
2022-12-17T10:38:03.559Z,-3.29
2022-12-17T10:39:03.915Z,-3.29
2022-12-17T10:40:04.856Z,-3.28
2022-12-17T10:41:05.171Z,-3.28
2022-12-17T10:42:05.715Z,-3.28
2022-12-17T10:42:17.915Z,-3.23
2022-12-17T10:43:18.617Z,-3.23
2022-12-17T10:44:19.311Z,-3.23
2022-12-17T10:45:19.275Z,-3.23
2022-12-17T10:46:20.003Z,-3.23
2022-12-17T10:47:20.728Z,-3.23
2022-12-17T10:48:21.646Z,-3.24
2022-12-17T10:49:21.843Z,-3.24
2022-12-17T10:50:22.437Z,-3.24
2022-12-17T10:51:23.227Z,-3.24
2022-12-17T10:52:23.885Z,-3.24
2022-12-17T10:53:24.588Z,-3.24
2022-12-17T10:54:25.190Z,-3.24
2022-12-17T10:55:26.018Z,-3.24
2022-12-17T10:56:27.901Z,-3.24
2022-12-17T10:57:27.544Z,-3.23
2022-12-17T10:58:28.228Z,-3.23
2022-12-17T10:59:29.290Z,-3.23
2022-12-17T11:00:29.849Z,-3.22
2022-12-17T11:01:30.498Z,-3.22
2022-12-17T11:02:31.119Z,-3.22
2022-12-17T11:03:31.481Z,-3.21
2022-12-17T11:04:32.346Z,-3.20
2022-12-17T11:05:32.926Z,-3.20
2022-12-17T11:06:36.214Z,-3.20
2022-12-17T11:07:33.028Z,-3.19
2022-12-17T11:08:33.734Z,-3.18
2022-12-17T11:09:33.830Z,-3.18
2022-12-17T11:10:34.553Z,-3.17
2022-12-17T11:10:47.701Z,-3.01
2022-12-17T11:11:48.494Z,-3.02
2022-12-17T11:12:49.157Z,-3.02
2022-12-17T11:13:49.456Z,-3.02
2022-12-17T11:14:49.624Z,-3.03
2022-12-17T11:15:50.195Z,-3.03
2022-12-17T11:16:50.287Z,-3.03
2022-12-17T11:17:50.803Z,-3.02
2022-12-17T11:18:51.417Z,-3.02
2022-12-17T11:19:52.236Z,-3.02
2022-12-17T11:20:52.879Z,-3.03
2022-12-17T11:21:53.800Z,-3.02
2022-12-17T11:22:54.480Z,-3.03
2022-12-17T11:23:55.001Z,-3.04
2022-12-17T11:24:55.548Z,-3.05
2022-12-17T11:25:56.332Z,-3.05
2022-12-17T11:26:57.257Z,-3.05
2022-12-17T11:27:57.459Z,-3.05
2022-12-17T11:28:58.133Z,-3.05
2022-12-17T11:29:58.452Z,-3.04
2022-12-17T11:30:59.022Z,-3.03
2022-12-17T11:31:59.645Z,-3.03
2022-12-17T11:33:00.040Z,-3.03
2022-12-17T11:34:00.552Z,-3.02
2022-12-17T11:35:01.267Z,-3.01
2022-12-17T11:36:02.061Z,-3.01
2022-12-17T11:37:02.895Z,-3.00
2022-12-17T11:38:03.522Z,-3.00
2022-12-17T11:39:04.010Z,-2.99
2022-12-17T11:40:04.043Z,-2.99
2022-12-17T11:40:18.204Z,-2.94
2022-12-17T11:41:19.051Z,-2.94
2022-12-17T11:42:19.429Z,-2.94
2022-12-17T11:43:20.256Z,-2.93
2022-12-17T11:44:20.925Z,-2.92
2022-12-17T11:45:21.715Z,-2.92
2022-12-17T11:46:22.440Z,-2.91
2022-12-17T11:47:22.467Z,-2.91
2022-12-17T11:48:23.300Z,-2.91
2022-12-17T11:49:23.802Z,-2.91
2022-12-17T11:50:23.842Z,-2.91
2022-12-17T11:51:24.352Z,-2.90
2022-12-17T11:52:25.089Z,-2.91
2022-12-17T11:53:28.121Z,-2.91
2022-12-17T11:54:26.006Z,-2.92
2022-12-17T11:55:26.731Z,-2.91
2022-12-17T11:56:27.365Z,-2.91
2022-12-17T11:57:28.123Z,-2.90
2022-12-17T11:58:28.740Z,-2.89
2022-12-17T11:59:28.977Z,-2.88
2022-12-17T12:00:29.737Z,-2.88
2022-12-17T12:01:29.903Z,-2.87
2022-12-17T12:02:30.185Z,-2.86
2022-12-17T12:03:30.476Z,-2.84
2022-12-17T12:04:30.432Z,-2.82
2022-12-17T12:05:31.363Z,-2.81
2022-12-17T12:06:32.324Z,-2.80
2022-12-17T12:07:32.400Z,-2.79
2022-12-17T12:08:33.178Z,-2.79
2022-12-17T12:09:34.005Z,-2.79
2022-12-17T12:10:34.780Z,-2.78
2022-12-17T12:11:35.742Z,-2.78
2022-12-17T12:11:51.958Z,-2.86
2022-12-17T12:12:52.391Z,-2.86
2022-12-17T12:13:52.214Z,-2.87
2022-12-17T12:14:52.339Z,-2.86
2022-12-17T12:15:52.620Z,-2.87
2022-12-17T12:16:53.061Z,-2.87
2022-12-17T12:17:53.323Z,-2.87
2022-12-17T12:18:54.304Z,-2.87
2022-12-17T12:19:55.054Z,-2.87
2022-12-17T12:20:55.190Z,-2.87
2022-12-17T12:21:56.774Z,-2.88
2022-12-17T12:22:56.581Z,-2.89
2022-12-17T12:23:56.956Z,-2.90
2022-12-17T12:24:57.266Z,-2.91
2022-12-17T12:25:59.262Z,-2.92
2022-12-17T12:26:59.135Z,-2.93
2022-12-17T12:27:59.429Z,-2.95
2022-12-17T12:29:00.150Z,-2.96
2022-12-17T12:30:00.185Z,-2.97
2022-12-17T12:31:00.846Z,-2.97
2022-12-17T12:32:00.998Z,-2.97
2022-12-17T12:33:05.604Z,-2.98
2022-12-17T12:34:02.191Z,-2.98
2022-12-17T12:35:02.315Z,-2.97
2022-12-17T12:36:03.270Z,-2.97
2022-12-17T12:37:04.156Z,-2.96
2022-12-17T12:38:04.862Z,-2.95